EGCC/MAN METAR and TAF weather

Enter ICAO airport designator
Station Type Date Time Source
EGCC METAR 2020/02/21 00:20 UTC NOAA

EGCC 210020Z AUTO 22007KT 9999 NCD 03/00 Q1017 NOSIG


Station Type Date Time Source
EGCC Decoded METAR 2020/02/21 00:20 UTC NOAA

Manchester Airport, United Kingdom (EGCC) 53-21N 002-17W 0M
Feb 20, 2020 - 07:20 PM EST / 2020.02.21 0020 UTC
Wind: from the SW (220 degrees) at 8 MPH (7 KT):0
Visibility: greater than 7 mile(s):0
Temperature: 37 F (3 C)
Dew Point: 32 F (0 C)
Relative Humidity: 80%
Pressure (altimeter): 30.03 in. Hg (1017 hPa)
ob: EGCC 210020Z AUTO 22007KT 9999 NCD 03/00 Q1017 NOSIG
cycle: 0

Station Type Date Time Source
EGCC TAF 2020/02/20 18:09 UTC NOAA

TAF TAF EGCC 201701Z 2018/2124 28015KT 9999 SCT018
BECMG 2020/2023 22012KT
BECMG 2105/2108 22015G25KT
TEMPO 2108/2124 22022G35KT PROB30
TEMPO 2122/2124 8000 RA BKN012

Example: see airport list